sensor_id;sensor_type;location;lat;lon;timestamp;P1;durP1;ratioP1;P2;durP2;ratioP2
5137;SDS011;53959;53.626;11.410;2022-08-07T00:00:43;8.57;;;5.33;;
5137;SDS011;53959;53.626;11.410;2022-08-07T00:03:09;6.53;;;5.30;;
5137;SDS011;53959;53.626;11.410;2022-08-07T00:05:34;6.90;;;6.20;;
5137;SDS011;53959;53.626;11.410;2022-08-07T00:08:01;15.20;;;6.67;;
5137;SDS011;53959;53.626;11.410;2022-08-07T00:10:27;8.13;;;6.20;;
5137;SDS011;53959;53.626;11.410;2022-08-07T00:12:53;8.80;;;6.13;;
5137;SDS011;53959;53.626;11.410;2022-08-07T00:15:19;6.73;;;5.80;;
5137;SDS011;53959;53.626;11.410;2022-08-07T00:17:45;10.03;;;6.20;;
5137;SDS011;53959;53.626;11.410;2022-08-07T00:22:39;9.10;;;5.83;;
5137;SDS011;53959;53.626;11.410;2022-08-07T00:25:05;8.57;;;5.77;;
5137;SDS011;53959;53.626;11.410;2022-08-07T00:27:31;9.10;;;6.20;;
5137;SDS011;53959;53.626;11.410;2022-08-07T00:29:57;12.67;;;6.30;;
5137;SDS011;53959;53.626;11.410;2022-08-07T00:32:22;11.87;;;5.50;;
5137;SDS011;53959;53.626;11.410;2022-08-07T00:34:48;6.27;;;5.17;;
5137;SDS011;53959;53.626;11.410;2022-08-07T00:37:14;7.47;;;6.03;;
5137;SDS011;53959;53.626;11.410;2022-08-07T00:39:40;8.43;;;5.63;;
5137;SDS011;53959;53.626;11.410;2022-08-07T00:42:06;6.40;;;5.50;;
5137;SDS011;53959;53.626;11.410;2022-08-07T00:44:32;11.03;;;5.90;;
5137;SDS011;53959;53.626;11.410;2022-08-07T00:46:58;7.07;;;5.43;;
5137;SDS011;53959;53.626;11.410;2022-08-07T00:49:27;16.57;;;6.00;;
5137;SDS011;53959;53.626;11.410;2022-08-07T00:51:53;11.10;;;6.13;;
5137;SDS011;53959;53.626;11.410;2022-08-07T00:54:19;7.40;;;5.67;;
5137;SDS011;53959;53.626;11.410;2022-08-07T00:56:44;9.03;;;6.30;;
5137;SDS011;53959;53.626;11.410;2022-08-07T00:59:10;6.57;;;5.77;;
5137;SDS011;53959;53.626;11.410;2022-08-07T01:01:35;8.93;;;6.00;;
5137;SDS011;53959;53.626;11.410;2022-08-07T01:04:04;8.03;;;6.30;;
5137;SDS011;53959;53.626;11.410;2022-08-07T01:06:31;12.03;;;5.93;;
5137;SDS011;53959;53.626;11.410;2022-08-07T01:08:58;10.10;;;6.53;;
5137;SDS011;53959;53.626;11.410;2022-08-07T01:11:24;7.90;;;5.90;;
5137;SDS011;53959;53.626;11.410;2022-08-07T01:13:50;8.50;;;6.30;;
5137;SDS011;53959;53.626;11.410;2022-08-07T01:16:16;15.03;;;6.10;;
5137;SDS011;53959;53.626;11.410;2022-08-07T01:18:42;13.60;;;5.70;;
5137;SDS011;53959;53.626;11.410;2022-08-07T01:21:18;9.90;;;6.47;;
5137;SDS011;53959;53.626;11.410;2022-08-07T01:23:49;10.20;;;5.63;;
5137;SDS011;53959;53.626;11.410;2022-08-07T01:26:16;9.23;;;6.20;;
5137;SDS011;53959;53.626;11.410;2022-08-07T01:28:45;6.07;;;5.47;;
5137;SDS011;53959;53.626;11.410;2022-08-07T01:31:12;7.03;;;5.60;;
5137;SDS011;53959;53.626;11.410;2022-08-07T01:33:38;14.33;;;5.87;;
5137;SDS011;53959;53.626;11.410;2022-08-07T01:36:04;10.10;;;6.10;;
5137;SDS011;53959;53.626;11.410;2022-08-07T01:38:33;20.33;;;6.53;;
5137;SDS011;53959;53.626;11.410;2022-08-07T01:40:59;11.43;;;6.43;;
5137;SDS011;53959;53.626;11.410;2022-08-07T01:43:27;11.50;;;5.80;;
5137;SDS011;53959;53.626;11.410;2022-08-07T01:45:54;6.20;;;5.60;;
5137;SDS011;53959;53.626;11.410;2022-08-07T01:48:21;6.20;;;5.50;;
5137;SDS011;53959;53.626;11.410;2022-08-07T01:50:54;8.57;;;6.10;;
5137;SDS011;53959;53.626;11.410;2022-08-07T01:53:24;15.73;;;8.53;;
5137;SDS011;53959;53.626;11.410;2022-08-07T01:55:55;10.00;;;6.37;;
5137;SDS011;53959;53.626;11.410;2022-08-07T01:58:27;9.23;;;6.40;;
5137;SDS011;53959;53.626;11.410;2022-08-07T02:00:59;9.00;;;6.30;;
5137;SDS011;53959;53.626;11.410;2022-08-07T02:03:28;10.93;;;6.43;;
5137;SDS011;53959;53.626;11.410;2022-08-07T02:05:58;7.93;;;6.50;;
5137;SDS011;53959;53.626;11.410;2022-08-07T02:08:27;8.50;;;6.67;;
5137;SDS011;53959;53.626;11.410;2022-08-07T02:10:54;9.40;;;6.20;;
5137;SDS011;53959;53.626;11.410;2022-08-07T02:13:24;8.80;;;6.53;;
5137;SDS011;53959;53.626;11.410;2022-08-07T02:15:52;14.40;;;7.80;;
5137;SDS011;53959;53.626;11.410;2022-08-07T02:18:20;7.13;;;6.20;;
5137;SDS011;53959;53.626;11.410;2022-08-07T02:20:48;11.57;;;7.40;;
5137;SDS011;53959;53.626;11.410;2022-08-07T02:23:17;8.63;;;6.70;;
5137;SDS011;53959;53.626;11.410;2022-08-07T02:25:44;13.67;;;7.00;;
5137;SDS011;53959;53.626;11.410;2022-08-07T02:28:11;9.10;;;6.20;;
5137;SDS011;53959;53.626;11.410;2022-08-07T02:30:38;7.00;;;5.77;;
5137;SDS011;53959;53.626;11.410;2022-08-07T02:33:05;8.90;;;6.53;;
5137;SDS011;53959;53.626;11.410;2022-08-07T02:35:31;10.03;;;7.20;;
5137;SDS011;53959;53.626;11.410;2022-08-07T02:37:58;12.00;;;6.87;;
5137;SDS011;53959;53.626;11.410;2022-08-07T02:40:26;14.60;;;7.70;;
5137;SDS011;53959;53.626;11.410;2022-08-07T02:42:53;7.37;;;6.20;;
5137;SDS011;53959;53.626;11.410;2022-08-07T02:45:21;8.90;;;7.30;;
5137;SDS011;53959;53.626;11.410;2022-08-07T02:47:48;12.70;;;7.20;;
5137;SDS011;53959;53.626;11.410;2022-08-07T02:50:14;11.87;;;7.80;;
5137;SDS011;53959;53.626;11.410;2022-08-07T02:52:41;14.30;;;6.47;;
5137;SDS011;53959;53.626;11.410;2022-08-07T02:55:20;13.77;;;7.33;;
5137;SDS011;53959;53.626;11.410;2022-08-07T02:57:48;13.53;;;6.33;;
5137;SDS011;53959;53.626;11.410;2022-08-07T03:00:16;11.13;;;6.67;;
5137;SDS011;53959;53.626;11.410;2022-08-07T03:02:43;12.40;;;6.73;;
5137;SDS011;53959;53.626;11.410;2022-08-07T03:05:11;8.57;;;6.80;;
5137;SDS011;53959;53.626;11.410;2022-08-07T03:07:38;7.77;;;6.10;;
5137;SDS011;53959;53.626;11.410;2022-08-07T03:10:05;7.60;;;6.40;;
5137;SDS011;53959;53.626;11.410;2022-08-07T03:12:32;10.60;;;6.60;;
5137;SDS011;53959;53.626;11.410;2022-08-07T03:14:59;6.57;;;5.90;;
5137;SDS011;53959;53.626;11.410;2022-08-07T03:17:25;7.90;;;7.10;;
5137;SDS011;53959;53.626;11.410;2022-08-07T03:19:52;10.17;;;6.53;;
5137;SDS011;53959;53.626;11.410;2022-08-07T03:22:18;8.50;;;6.37;;
5137;SDS011;53959;53.626;11.410;2022-08-07T03:24:45;8.10;;;6.83;;
5137;SDS011;53959;53.626;11.410;2022-08-07T03:27:10;9.67;;;5.83;;
5137;SDS011;53959;53.626;11.410;2022-08-07T03:29:39;11.20;;;6.50;;
5137;SDS011;53959;53.626;11.410;2022-08-07T03:32:13;10.70;;;6.03;;
5137;SDS011;53959;53.626;11.410;2022-08-07T03:34:41;7.83;;;6.23;;
5137;SDS011;53959;53.626;11.410;2022-08-07T03:37:08;11.90;;;6.57;;
5137;SDS011;53959;53.626;11.410;2022-08-07T03:39:35;10.80;;;6.37;;
5137;SDS011;53959;53.626;11.410;2022-08-07T03:42:03;17.40;;;6.27;;
5137;SDS011;53959;53.626;11.410;2022-08-07T03:44:33;14.63;;;7.07;;
5137;SDS011;53959;53.626;11.410;2022-08-07T03:47:00;6.40;;;5.80;;
5137;SDS011;53959;53.626;11.410;2022-08-07T03:49:26;10.23;;;6.50;;
5137;SDS011;53959;53.626;11.410;2022-08-07T03:51:52;9.57;;;6.57;;
5137;SDS011;53959;53.626;11.410;2022-08-07T03:54:19;8.87;;;7.13;;
5137;SDS011;53959;53.626;11.410;2022-08-07T03:56:45;12.00;;;6.70;;
5137;SDS011;53959;53.626;11.410;2022-08-07T03:59:11;13.60;;;7.50;;
5137;SDS011;53959;53.626;11.410;2022-08-07T04:01:41;9.60;;;6.83;;
5137;SDS011;53959;53.626;11.410;2022-08-07T04:04:08;14.47;;;7.50;;
5137;SDS011;53959;53.626;11.410;2022-08-07T04:06:35;11.73;;;6.90;;
5137;SDS011;53959;53.626;11.410;2022-08-07T04:09:02;16.90;;;7.67;;
5137;SDS011;53959;53.626;11.410;2022-08-07T04:11:28;12.40;;;7.40;;
5137;SDS011;53959;53.626;11.410;2022-08-07T04:13:55;13.33;;;7.83;;
5137;SDS011;53959;53.626;11.410;2022-08-07T04:16:21;10.73;;;7.27;;
5137;SDS011;53959;53.626;11.410;2022-08-07T04:18:47;7.63;;;6.83;;
5137;SDS011;53959;53.626;11.410;2022-08-07T04:21:13;8.50;;;6.57;;
5137;SDS011;53959;53.626;11.410;2022-08-07T04:23:39;11.30;;;7.20;;
5137;SDS011;53959;53.626;11.410;2022-08-07T04:26:05;12.50;;;7.60;;
5137;SDS011;53959;53.626;11.410;2022-08-07T04:28:31;8.97;;;6.90;;
5137;SDS011;53959;53.626;11.410;2022-08-07T04:30:57;11.33;;;7.00;;
5137;SDS011;53959;53.626;11.410;2022-08-07T04:33:24;14.10;;;7.40;;
5137;SDS011;53959;53.626;11.410;2022-08-07T04:35:50;10.47;;;7.70;;
5137;SDS011;53959;53.626;11.410;2022-08-07T04:38:17;12.27;;;7.13;;
5137;SDS011;53959;53.626;11.410;2022-08-07T04:40:44;19.53;;;6.60;;
5137;SDS011;53959;53.626;11.410;2022-08-07T04:43:10;10.33;;;6.73;;
5137;SDS011;53959;53.626;11.410;2022-08-07T04:51:15;8.87;;;6.97;;
5137;SDS011;53959;53.626;11.410;2022-08-07T05:00:02;14.20;;;7.40;;
5137;SDS011;53959;53.626;11.410;2022-08-07T05:05:12;12.60;;;7.17;;
5137;SDS011;53959;53.626;11.410;2022-08-07T05:07:49;13.63;;;6.57;;
5137;SDS011;53959;53.626;11.410;2022-08-07T05:10:36;7.87;;;5.67;;
5137;SDS011;53959;53.626;11.410;2022-08-07T05:13:06;9.90;;;5.53;;
5137;SDS011;53959;53.626;11.410;2022-08-07T05:15:36;6.80;;;6.07;;
5137;SDS011;53959;53.626;11.410;2022-08-07T05:18:04;14.17;;;6.70;;
5137;SDS011;53959;53.626;11.410;2022-08-07T05:20:41;6.97;;;5.77;;
5137;SDS011;53959;53.626;11.410;2022-08-07T05:23:11;23.23;;;5.70;;
5137;SDS011;53959;53.626;11.410;2022-08-07T05:25:41;9.23;;;5.33;;
5137;SDS011;53959;53.626;11.410;2022-08-07T05:28:08;8.93;;;6.10;;
5137;SDS011;53959;53.626;11.410;2022-08-07T05:30:35;6.33;;;5.40;;
5137;SDS011;53959;53.626;11.410;2022-08-07T05:33:03;11.43;;;5.30;;
5137;SDS011;53959;53.626;11.410;2022-08-07T05:35:30;7.03;;;5.30;;
5137;SDS011;53959;53.626;11.410;2022-08-07T05:37:57;12.67;;;5.63;;
5137;SDS011;53959;53.626;11.410;2022-08-07T05:40:24;8.50;;;5.90;;
5137;SDS011;53959;53.626;11.410;2022-08-07T05:42:50;6.37;;;5.17;;
5137;SDS011;53959;53.626;11.410;2022-08-07T05:45:16;8.07;;;5.37;;
5137;SDS011;53959;53.626;11.410;2022-08-07T05:47:44;9.40;;;5.00;;
5137;SDS011;53959;53.626;11.410;2022-08-07T05:50:10;6.73;;;4.23;;
5137;SDS011;53959;53.626;11.410;2022-08-07T05:52:37;6.67;;;5.07;;
5137;SDS011;53959;53.626;11.410;2022-08-07T05:55:02;8.43;;;4.80;;
5137;SDS011;53959;53.626;11.410;2022-08-07T05:57:28;6.03;;;4.80;;
5137;SDS011;53959;53.626;11.410;2022-08-07T05:59:55;5.43;;;4.47;;
5137;SDS011;53959;53.626;11.410;2022-08-07T06:02:22;4.43;;;4.03;;
5137;SDS011;53959;53.626;11.410;2022-08-07T06:04:53;7.77;;;4.90;;
5137;SDS011;53959;53.626;11.410;2022-08-07T06:07:21;7.97;;;4.63;;
5137;SDS011;53959;53.626;11.410;2022-08-07T06:09:47;4.97;;;4.47;;
5137;SDS011;53959;53.626;11.410;2022-08-07T06:12:13;7.20;;;4.30;;
5137;SDS011;53959;53.626;11.410;2022-08-07T06:14:39;6.30;;;3.83;;
5137;SDS011;53959;53.626;11.410;2022-08-07T06:17:05;14.30;;;4.20;;
5137;SDS011;53959;53.626;11.410;2022-08-07T06:19:32;4.20;;;3.60;;
5137;SDS011;53959;53.626;11.410;2022-08-07T06:21:59;7.67;;;3.80;;
5137;SDS011;53959;53.626;11.410;2022-08-07T06:24:25;4.10;;;3.70;;
5137;SDS011;53959;53.626;11.410;2022-08-07T06:26:51;5.63;;;4.43;;
5137;SDS011;53959;53.626;11.410;2022-08-07T06:29:16;5.57;;;3.37;;
5137;SDS011;53959;53.626;11.410;2022-08-07T06:31:42;4.13;;;3.33;;
5137;SDS011;53959;53.626;11.410;2022-08-07T06:34:07;5.07;;;3.87;;
5137;SDS011;53959;53.626;11.410;2022-08-07T06:36:33;5.50;;;3.70;;
5137;SDS011;53959;53.626;11.410;2022-08-07T06:38:58;3.47;;;2.73;;
5137;SDS011;53959;53.626;11.410;2022-08-07T06:41:26;3.57;;;3.37;;
5137;SDS011;53959;53.626;11.410;2022-08-07T06:43:55;3.47;;;2.87;;
5137;SDS011;53959;53.626;11.410;2022-08-07T06:46:22;6.50;;;2.80;;
5137;SDS011;53959;53.626;11.410;2022-08-07T06:48:48;3.93;;;2.40;;
5137;SDS011;53959;53.626;11.410;2022-08-07T06:51:15;2.20;;;2.10;;
5137;SDS011;53959;53.626;11.410;2022-08-07T06:53:42;9.00;;;2.03;;
5137;SDS011;53959;53.626;11.410;2022-08-07T06:56:09;11.43;;;2.40;;
5137;SDS011;53959;53.626;11.410;2022-08-07T06:58:36;3.13;;;2.57;;
5137;SDS011;53959;53.626;11.410;2022-08-07T07:01:07;2.73;;;2.53;;
5137;SDS011;53959;53.626;11.410;2022-08-07T07:03:36;2.77;;;2.33;;
5137;SDS011;53959;53.626;11.410;2022-08-07T07:06:04;9.90;;;2.50;;
5137;SDS011;53959;53.626;11.410;2022-08-07T07:08:30;1.90;;;1.80;;
5137;SDS011;53959;53.626;11.410;2022-08-07T07:10:56;2.10;;;2.00;;
5137;SDS011;53959;53.626;11.410;2022-08-07T07:13:24;2.10;;;2.00;;
5137;SDS011;53959;53.626;11.410;2022-08-07T07:15:56;4.50;;;2.60;;
5137;SDS011;53959;53.626;11.410;2022-08-07T07:18:32;9.30;;;3.10;;
5137;SDS011;53959;53.626;11.410;2022-08-07T07:21:09;3.70;;;1.60;;
5137;SDS011;53959;53.626;11.410;2022-08-07T07:23:44;3.57;;;2.20;;
5137;SDS011;53959;53.626;11.410;2022-08-07T07:26:13;2.60;;;2.40;;
5137;SDS011;53959;53.626;11.410;2022-08-07T07:28:52;3.03;;;2.67;;
5137;SDS011;53959;53.626;11.410;2022-08-07T07:31:27;7.90;;;2.40;;
5137;SDS011;53959;53.626;11.410;2022-08-07T07:34:02;2.80;;;2.40;;
5137;SDS011;53959;53.626;11.410;2022-08-07T07:36:30;5.17;;;1.97;;
5137;SDS011;53959;53.626;11.410;2022-08-07T07:38:57;2.10;;;1.90;;
5137;SDS011;53959;53.626;11.410;2022-08-07T07:41:26;2.60;;;2.40;;
5137;SDS011;53959;53.626;11.410;2022-08-07T07:43:53;5.57;;;2.70;;
5137;SDS011;53959;53.626;11.410;2022-08-07T07:46:20;3.90;;;2.37;;
5137;SDS011;53959;53.626;11.410;2022-08-07T07:48:51;2.53;;;2.10;;
5137;SDS011;53959;53.626;11.410;2022-08-07T07:51:19;4.77;;;2.53;;
5137;SDS011;53959;53.626;11.410;2022-08-07T07:53:46;2.30;;;2.20;;
5137;SDS011;53959;53.626;11.410;2022-08-07T07:56:13;11.07;;;2.87;;
5137;SDS011;53959;53.626;11.410;2022-08-07T07:58:41;2.37;;;2.20;;
5137;SDS011;53959;53.626;11.410;2022-08-07T08:01:08;3.63;;;2.63;;
5137;SDS011;53959;53.626;11.410;2022-08-07T08:03:35;3.10;;;2.40;;
5137;SDS011;53959;53.626;11.410;2022-08-07T08:06:02;5.60;;;2.63;;
5137;SDS011;53959;53.626;11.410;2022-08-07T08:08:30;2.93;;;2.70;;
5137;SDS011;53959;53.626;11.410;2022-08-07T08:10:58;3.80;;;2.20;;
5137;SDS011;53959;53.626;11.410;2022-08-07T08:13:25;6.30;;;2.77;;
5137;SDS011;53959;53.626;11.410;2022-08-07T08:15:52;2.67;;;2.47;;
5137;SDS011;53959;53.626;11.410;2022-08-07T08:18:19;4.97;;;3.00;;
5137;SDS011;53959;53.626;11.410;2022-08-07T08:20:47;4.60;;;2.10;;
5137;SDS011;53959;53.626;11.410;2022-08-07T08:23:13;3.27;;;2.40;;
5137;SDS011;53959;53.626;11.410;2022-08-07T08:26:00;5.93;;;2.57;;
5137;SDS011;53959;53.626;11.410;2022-08-07T08:28:45;5.37;;;3.07;;
5137;SDS011;53959;53.626;11.410;2022-08-07T08:31:20;4.80;;;2.73;;
5137;SDS011;53959;53.626;11.410;2022-08-07T08:33:49;2.97;;;2.50;;
5137;SDS011;53959;53.626;11.410;2022-08-07T08:36:18;4.03;;;2.30;;
5137;SDS011;53959;53.626;11.410;2022-08-07T08:38:45;2.40;;;2.20;;
5137;SDS011;53959;53.626;11.410;2022-08-07T08:41:24;2.13;;;2.03;;
5137;SDS011;53959;53.626;11.410;2022-08-07T08:44:14;4.30;;;2.73;;
5137;SDS011;53959;53.626;11.410;2022-08-07T08:46:50;2.80;;;2.60;;
5137;SDS011;53959;53.626;11.410;2022-08-07T08:49:31;3.03;;;2.23;;
5137;SDS011;53959;53.626;11.410;2022-08-07T08:52:20;3.47;;;2.80;;
5137;SDS011;53959;53.626;11.410;2022-08-07T08:54:55;3.00;;;2.30;;
5137;SDS011;53959;53.626;11.410;2022-08-07T08:57:26;2.40;;;1.80;;
5137;SDS011;53959;53.626;11.410;2022-08-07T09:00:04;2.83;;;2.07;;
5137;SDS011;53959;53.626;11.410;2022-08-07T09:10:45;1.90;;;1.90;;
5137;SDS011;53959;53.626;11.410;2022-08-07T09:16:13;4.97;;;2.87;;
5137;SDS011;53959;53.626;11.410;2022-08-07T09:21:38;1.80;;;1.73;;
5137;SDS011;53959;53.626;11.410;2022-08-07T09:24:32;1.73;;;1.63;;
5137;SDS011;53959;53.626;11.410;2022-08-07T09:33:26;4.93;;;2.40;;
5137;SDS011;53959;53.626;11.410;2022-08-07T09:38:43;3.03;;;2.50;;
5137;SDS011;53959;53.626;11.410;2022-08-07T09:41:37;3.97;;;2.00;;
5137;SDS011;53959;53.626;11.410;2022-08-07T09:50:07;4.97;;;2.23;;
5137;SDS011;53959;53.626;11.410;2022-08-07T09:52:55;2.90;;;2.00;;
5137;SDS011;53959;53.626;11.410;2022-08-07T09:55:26;1.73;;;1.63;;
5137;SDS011;53959;53.626;11.410;2022-08-07T10:06:23;1.90;;;1.53;;
5137;SDS011;53959;53.626;11.410;2022-08-07T10:14:25;2.03;;;1.83;;
5137;SDS011;53959;53.626;11.410;2022-08-07T10:27:58;2.33;;;2.23;;
5137;SDS011;53959;53.626;11.410;2022-08-07T10:30:44;1.90;;;1.80;;
5137;SDS011;53959;53.626;11.410;2022-08-07T10:36:37;1.97;;;1.87;;
5137;SDS011;53959;53.626;11.410;2022-08-07T10:39:26;2.10;;;1.93;;
5137;SDS011;53959;53.626;11.410;2022-08-07T10:42:21;4.00;;;1.93;;
5137;SDS011;53959;53.626;11.410;2022-08-07T10:45:08;2.73;;;1.97;;
5137;SDS011;53959;53.626;11.410;2022-08-07T10:50:33;2.60;;;2.10;;
5137;SDS011;53959;53.626;11.410;2022-08-07T10:55:43;6.07;;;2.07;;
5137;SDS011;53959;53.626;11.410;2022-08-07T11:01:30;2.50;;;2.30;;
5137;SDS011;53959;53.626;11.410;2022-08-07T11:05:01;2.60;;;2.40;;
5137;SDS011;53959;53.626;11.410;2022-08-07T11:10:47;2.60;;;2.43;;
5137;SDS011;53959;53.626;11.410;2022-08-07T11:13:29;13.53;;;2.70;;
5137;SDS011;53959;53.626;11.410;2022-08-07T11:16:27;2.60;;;2.20;;
5137;SDS011;53959;53.626;11.410;2022-08-07T11:22:14;3.00;;;2.13;;
5137;SDS011;53959;53.626;11.410;2022-08-07T11:24:50;3.37;;;2.37;;
5137;SDS011;53959;53.626;11.410;2022-08-07T11:30:32;9.77;;;2.10;;
5137;SDS011;53959;53.626;11.410;2022-08-07T11:33:15;2.10;;;1.97;;
5137;SDS011;53959;53.626;11.410;2022-08-07T11:41:27;1.57;;;1.40;;
5137;SDS011;53959;53.626;11.410;2022-08-07T11:43:57;4.53;;;2.63;;
5137;SDS011;53959;53.626;11.410;2022-08-07T11:52:36;6.60;;;2.97;;
5137;SDS011;53959;53.626;11.410;2022-08-07T11:57:43;2.30;;;2.10;;
5137;SDS011;53959;53.626;11.410;2022-08-07T12:00:18;2.63;;;2.20;;
5137;SDS011;53959;53.626;11.410;2022-08-07T12:08:54;1.77;;;1.77;;
5137;SDS011;53959;53.626;11.410;2022-08-07T12:11:33;1.83;;;1.73;;
5137;SDS011;53959;53.626;11.410;2022-08-07T12:14:07;2.17;;;2.07;;
5137;SDS011;53959;53.626;11.410;2022-08-07T12:16:41;4.03;;;2.23;;
5137;SDS011;53959;53.626;11.410;2022-08-07T12:22:03;6.00;;;1.90;;
5137;SDS011;53959;53.626;11.410;2022-08-07T12:27:41;1.80;;;1.60;;
5137;SDS011;53959;53.626;11.410;2022-08-07T12:30:12;2.23;;;2.03;;
5137;SDS011;53959;53.626;11.410;2022-08-07T12:32:46;1.60;;;1.60;;
5137;SDS011;53959;53.626;11.410;2022-08-07T12:35:22;1.53;;;1.50;;
5137;SDS011;53959;53.626;11.410;2022-08-07T12:37:49;4.10;;;2.10;;
5137;SDS011;53959;53.626;11.410;2022-08-07T12:40:18;3.47;;;2.30;;
5137;SDS011;53959;53.626;11.410;2022-08-07T12:42:46;3.60;;;1.93;;
5137;SDS011;53959;53.626;11.410;2022-08-07T12:45:18;4.53;;;2.40;;
5137;SDS011;53959;53.626;11.410;2022-08-07T12:50:15;2.27;;;2.17;;
5137;SDS011;53959;53.626;11.410;2022-08-07T12:53:06;2.60;;;2.40;;
5137;SDS011;53959;53.626;11.410;2022-08-07T12:55:42;5.37;;;2.70;;
5137;SDS011;53959;53.626;11.410;2022-08-07T12:58:17;2.23;;;2.03;;
5137;SDS011;53959;53.626;11.410;2022-08-07T13:01:07;3.33;;;1.70;;
5137;SDS011;53959;53.626;11.410;2022-08-07T13:09:16;5.53;;;1.70;;
5137;SDS011;53959;53.626;11.410;2022-08-07T13:11:59;2.00;;;2.00;;
5137;SDS011;53959;53.626;11.410;2022-08-07T13:15:31;3.00;;;2.10;;
5137;SDS011;53959;53.626;11.410;2022-08-07T13:17:45;2.90;;;2.63;;
5137;SDS011;53959;53.626;11.410;2022-08-07T13:20:42;2.07;;;1.97;;
5137;SDS011;53959;53.626;11.410;2022-08-07T13:23:28;2.30;;;2.13;;
5137;SDS011;53959;53.626;11.410;2022-08-07T13:26:18;3.53;;;2.10;;
5137;SDS011;53959;53.626;11.410;2022-08-07T13:29:09;2.33;;;2.20;;
5137;SDS011;53959;53.626;11.410;2022-08-07T13:31:42;4.70;;;1.83;;
5137;SDS011;53959;53.626;11.410;2022-08-07T13:34:22;2.73;;;2.53;;
5137;SDS011;53959;53.626;11.410;2022-08-07T13:36:50;2.20;;;2.07;;
5137;SDS011;53959;53.626;11.410;2022-08-07T13:39:25;3.30;;;2.13;;
5137;SDS011;53959;53.626;11.410;2022-08-07T13:42:00;2.80;;;2.60;;
5137;SDS011;53959;53.626;11.410;2022-08-07T13:44:27;3.07;;;2.87;;
5137;SDS011;53959;53.626;11.410;2022-08-07T13:46:57;3.10;;;2.40;;
5137;SDS011;53959;53.626;11.410;2022-08-07T13:49:25;2.43;;;2.33;;
5137;SDS011;53959;53.626;11.410;2022-08-07T13:51:57;2.50;;;2.40;;
5137;SDS011;53959;53.626;11.410;2022-08-07T13:54:28;1.87;;;1.77;;
5137;SDS011;53959;53.626;11.410;2022-08-07T13:56:55;2.50;;;2.40;;
5137;SDS011;53959;53.626;11.410;2022-08-07T13:59:24;2.60;;;2.40;;
5137;SDS011;53959;53.626;11.410;2022-08-07T14:01:56;2.60;;;2.40;;
5137;SDS011;53959;53.626;11.410;2022-08-07T14:04:38;3.07;;;2.77;;
5137;SDS011;53959;53.626;11.410;2022-08-07T14:07:23;3.17;;;2.27;;
5137;SDS011;53959;53.626;11.410;2022-08-07T14:09:52;2.67;;;2.57;;
5137;SDS011;53959;53.626;11.410;2022-08-07T14:12:23;2.27;;;2.10;;
5137;SDS011;53959;53.626;11.410;2022-08-07T14:14:59;2.80;;;2.60;;
5137;SDS011;53959;53.626;11.410;2022-08-07T14:17:28;2.90;;;2.70;;
5137;SDS011;53959;53.626;11.410;2022-08-07T14:19:59;2.43;;;2.23;;
5137;SDS011;53959;53.626;11.410;2022-08-07T14:22:39;2.20;;;2.10;;
5137;SDS011;53959;53.626;11.410;2022-08-07T14:25:10;4.90;;;2.80;;
5137;SDS011;53959;53.626;11.410;2022-08-07T14:27:41;4.43;;;3.20;;
5137;SDS011;53959;53.626;11.410;2022-08-07T14:30:10;2.43;;;2.20;;
5137;SDS011;53959;53.626;11.410;2022-08-07T14:32:41;2.77;;;2.57;;
5137;SDS011;53959;53.626;11.410;2022-08-07T14:35:31;2.17;;;2.07;;
5137;SDS011;53959;53.626;11.410;2022-08-07T14:37:57;5.67;;;2.60;;
5137;SDS011;53959;53.626;11.410;2022-08-07T14:40:25;2.40;;;2.30;;
5137;SDS011;53959;53.626;11.410;2022-08-07T14:45:46;3.10;;;2.70;;
5137;SDS011;53959;53.626;11.410;2022-08-07T14:48:21;3.53;;;2.73;;
5137;SDS011;53959;53.626;11.410;2022-08-07T14:50:52;3.07;;;2.50;;
5137;SDS011;53959;53.626;11.410;2022-08-07T14:53:20;2.60;;;2.50;;
5137;SDS011;53959;53.626;11.410;2022-08-07T14:55:48;3.40;;;3.10;;
5137;SDS011;53959;53.626;11.410;2022-08-07T14:58:14;2.53;;;2.43;;
5137;SDS011;53959;53.626;11.410;2022-08-07T15:00:42;2.60;;;2.40;;
5137;SDS011;53959;53.626;11.410;2022-08-07T15:03:12;4.00;;;3.10;;
5137;SDS011;53959;53.626;11.410;2022-08-07T15:05:39;4.00;;;2.87;;
5137;SDS011;53959;53.626;11.410;2022-08-07T15:08:06;2.77;;;2.57;;
5137;SDS011;53959;53.626;11.410;2022-08-07T15:10:33;3.53;;;2.60;;
5137;SDS011;53959;53.626;11.410;2022-08-07T15:13:02;2.73;;;2.20;;
5137;SDS011;53959;53.626;11.410;2022-08-07T15:15:37;2.90;;;2.47;;
5137;SDS011;53959;53.626;11.410;2022-08-07T15:18:13;6.83;;;2.97;;
5137;SDS011;53959;53.626;11.410;2022-08-07T15:20:43;3.03;;;2.73;;
5137;SDS011;53959;53.626;11.410;2022-08-07T15:23:12;2.20;;;2.10;;
5137;SDS011;53959;53.626;11.410;2022-08-07T15:25:46;2.60;;;2.40;;
5137;SDS011;53959;53.626;11.410;2022-08-07T15:28:19;3.20;;;2.80;;
5137;SDS011;53959;53.626;11.410;2022-08-07T15:30:48;2.53;;;2.33;;
5137;SDS011;53959;53.626;11.410;2022-08-07T15:33:17;3.03;;;2.63;;
5137;SDS011;53959;53.626;11.410;2022-08-07T15:35:48;2.30;;;2.10;;
5137;SDS011;53959;53.626;11.410;2022-08-07T15:38:23;4.23;;;2.73;;
5137;SDS011;53959;53.626;11.410;2022-08-07T15:40:51;5.37;;;2.97;;
5137;SDS011;53959;53.626;11.410;2022-08-07T15:43:21;3.60;;;2.77;;
5137;SDS011;53959;53.626;11.410;2022-08-07T15:45:48;2.60;;;2.50;;
5137;SDS011;53959;53.626;11.410;2022-08-07T15:48:20;2.97;;;2.73;;
5137;SDS011;53959;53.626;11.410;2022-08-07T15:50:54;2.87;;;2.77;;
5137;SDS011;53959;53.626;11.410;2022-08-07T15:53:25;7.10;;;2.87;;
5137;SDS011;53959;53.626;11.410;2022-08-07T15:55:56;3.07;;;2.77;;
5137;SDS011;53959;53.626;11.410;2022-08-07T15:58:36;3.23;;;2.17;;
5137;SDS011;53959;53.626;11.410;2022-08-07T16:01:20;2.50;;;2.30;;
5137;SDS011;53959;53.626;11.410;2022-08-07T16:03:50;2.37;;;2.27;;
5137;SDS011;53959;53.626;11.410;2022-08-07T16:17:27;2.13;;;2.03;;
5137;SDS011;53959;53.626;11.410;2022-08-07T16:22:59;3.60;;;2.67;;
5137;SDS011;53959;53.626;11.410;2022-08-07T16:25:58;2.97;;;2.77;;
5137;SDS011;53959;53.626;11.410;2022-08-07T16:33:59;2.30;;;2.20;;
5137;SDS011;53959;53.626;11.410;2022-08-07T16:39:24;3.10;;;2.53;;
5137;SDS011;53959;53.626;11.410;2022-08-07T16:47:51;2.77;;;2.57;;
5137;SDS011;53959;53.626;11.410;2022-08-07T16:50:37;3.57;;;2.97;;
5137;SDS011;53959;53.626;11.410;2022-08-07T16:56:19;3.30;;;2.07;;
5137;SDS011;53959;53.626;11.410;2022-08-07T16:58:52;3.30;;;3.10;;
5137;SDS011;53959;53.626;11.410;2022-08-07T17:06:54;3.70;;;3.20;;
5137;SDS011;53959;53.626;11.410;2022-08-07T17:09:34;3.63;;;2.80;;
5137;SDS011;53959;53.626;11.410;2022-08-07T17:12:24;3.27;;;2.57;;
5137;SDS011;53959;53.626;11.410;2022-08-07T17:17:41;3.37;;;3.07;;
5137;SDS011;53959;53.626;11.410;2022-08-07T17:20:21;2.87;;;2.67;;
5137;SDS011;53959;53.626;11.410;2022-08-07T17:23:59;3.73;;;2.80;;
5137;SDS011;53959;53.626;11.410;2022-08-07T17:25:59;3.73;;;3.10;;
5137;SDS011;53959;53.626;11.410;2022-08-07T17:28:34;4.40;;;3.40;;
5137;SDS011;53959;53.626;11.410;2022-08-07T17:31:20;6.63;;;3.37;;
5137;SDS011;53959;53.626;11.410;2022-08-07T17:33:58;2.70;;;2.50;;
5137;SDS011;53959;53.626;11.410;2022-08-07T17:36:34;3.77;;;3.47;;
5137;SDS011;53959;53.626;11.410;2022-08-07T17:39:08;3.53;;;3.23;;
5137;SDS011;53959;53.626;11.410;2022-08-07T17:41:49;6.23;;;3.13;;
5137;SDS011;53959;53.626;11.410;2022-08-07T17:44:23;3.27;;;3.03;;
5137;SDS011;53959;53.626;11.410;2022-08-07T17:49:55;3.80;;;3.50;;
5137;SDS011;53959;53.626;11.410;2022-08-07T17:52:33;4.27;;;3.90;;
5137;SDS011;53959;53.626;11.410;2022-08-07T17:55:06;6.80;;;3.50;;
5137;SDS011;53959;53.626;11.410;2022-08-07T18:00:08;3.60;;;3.33;;
5137;SDS011;53959;53.626;11.410;2022-08-07T18:02:45;8.03;;;3.50;;
5137;SDS011;53959;53.626;11.410;2022-08-07T18:05:28;3.83;;;3.53;;